sensor_id;sensor_type;location;lat;lon;timestamp;P1;durP1;ratioP1;P2;durP2;ratioP2
56429;SDS011;42332;52.136;20.666;2022-08-19T00:00:03;25.13;;;11.85;;
56429;SDS011;42332;52.136;20.666;2022-08-19T00:02:31;22.25;;;12.30;;
56429;SDS011;42332;52.136;20.666;2022-08-19T00:04:57;27.42;;;12.95;;
56429;SDS011;42332;52.136;20.666;2022-08-19T00:07:22;24.08;;;14.63;;
56429;SDS011;42332;52.136;20.666;2022-08-19T00:09:48;24.98;;;13.15;;
56429;SDS011;42332;52.136;20.666;2022-08-19T00:12:13;24.63;;;13.60;;
56429;SDS011;42332;52.136;20.666;2022-08-19T00:14:39;25.20;;;13.75;;
56429;SDS011;42332;52.136;20.666;2022-08-19T00:17:06;22.77;;;13.98;;
56429;SDS011;42332;52.136;20.666;2022-08-19T00:19:32;27.77;;;14.38;;
56429;SDS011;42332;52.136;20.666;2022-08-19T00:21:58;26.52;;;14.98;;
56429;SDS011;42332;52.136;20.666;2022-08-19T00:24:24;24.38;;;14.10;;
56429;SDS011;42332;52.136;20.666;2022-08-19T00:26:49;27.63;;;13.82;;
56429;SDS011;42332;52.136;20.666;2022-08-19T00:29:16;23.80;;;14.07;;
56429;SDS011;42332;52.136;20.666;2022-08-19T00:31:43;26.92;;;14.00;;
56429;SDS011;42332;52.136;20.666;2022-08-19T00:34:10;23.27;;;13.73;;
56429;SDS011;42332;52.136;20.666;2022-08-19T00:36:37;22.02;;;13.70;;
56429;SDS011;42332;52.136;20.666;2022-08-19T00:39:02;21.67;;;13.73;;
56429;SDS011;42332;52.136;20.666;2022-08-19T00:41:28;25.65;;;12.93;;
56429;SDS011;42332;52.136;20.666;2022-08-19T00:44:07;25.85;;;13.55;;
56429;SDS011;42332;52.136;20.666;2022-08-19T00:46:37;24.15;;;14.18;;
56429;SDS011;42332;52.136;20.666;2022-08-19T00:49:06;22.48;;;13.93;;
56429;SDS011;42332;52.136;20.666;2022-08-19T00:51:39;22.92;;;12.38;;
56429;SDS011;42332;52.136;20.666;2022-08-19T00:54:05;22.30;;;12.95;;
56429;SDS011;42332;52.136;20.666;2022-08-19T00:56:31;25.65;;;13.23;;
56429;SDS011;42332;52.136;20.666;2022-08-19T00:58:56;20.90;;;12.23;;
56429;SDS011;42332;52.136;20.666;2022-08-19T01:01:23;21.65;;;12.50;;
56429;SDS011;42332;52.136;20.666;2022-08-19T01:03:49;27.33;;;13.43;;
56429;SDS011;42332;52.136;20.666;2022-08-19T01:06:14;25.45;;;14.98;;
56429;SDS011;42332;52.136;20.666;2022-08-19T01:08:40;24.52;;;13.40;;
56429;SDS011;42332;52.136;20.666;2022-08-19T01:11:05;21.17;;;12.98;;
56429;SDS011;42332;52.136;20.666;2022-08-19T01:13:32;27.05;;;13.25;;
56429;SDS011;42332;52.136;20.666;2022-08-19T01:16:03;22.55;;;12.70;;
56429;SDS011;42332;52.136;20.666;2022-08-19T01:18:31;23.02;;;13.52;;
56429;SDS011;42332;52.136;20.666;2022-08-19T01:20:58;20.55;;;12.57;;
56429;SDS011;42332;52.136;20.666;2022-08-19T01:23:39;22.73;;;13.60;;
56429;SDS011;42332;52.136;20.666;2022-08-19T01:26:09;19.60;;;13.00;;
56429;SDS011;42332;52.136;20.666;2022-08-19T01:28:37;19.95;;;13.30;;
56429;SDS011;42332;52.136;20.666;2022-08-19T01:31:03;25.13;;;12.63;;
56429;SDS011;42332;52.136;20.666;2022-08-19T01:33:29;24.15;;;14.07;;
56429;SDS011;42332;52.136;20.666;2022-08-19T01:36:06;23.55;;;12.77;;
56429;SDS011;42332;52.136;20.666;2022-08-19T01:38:35;19.67;;;12.25;;
56429;SDS011;42332;52.136;20.666;2022-08-19T01:41:02;20.10;;;12.35;;
56429;SDS011;42332;52.136;20.666;2022-08-19T01:43:27;20.58;;;12.50;;
56429;SDS011;42332;52.136;20.666;2022-08-19T01:45:52;24.25;;;13.48;;
56429;SDS011;42332;52.136;20.666;2022-08-19T01:48:18;20.15;;;12.32;;
56429;SDS011;42332;52.136;20.666;2022-08-19T01:50:44;21.23;;;12.68;;
56429;SDS011;42332;52.136;20.666;2022-08-19T01:53:10;18.55;;;12.20;;
56429;SDS011;42332;52.136;20.666;2022-08-19T01:55:37;20.55;;;12.43;;
56429;SDS011;42332;52.136;20.666;2022-08-19T01:58:04;20.45;;;13.10;;
56429;SDS011;42332;52.136;20.666;2022-08-19T02:00:31;22.52;;;13.00;;
56429;SDS011;42332;52.136;20.666;2022-08-19T02:02:57;18.25;;;12.07;;
56429;SDS011;42332;52.136;20.666;2022-08-19T02:05:22;21.63;;;12.77;;
56429;SDS011;42332;52.136;20.666;2022-08-19T02:07:48;23.02;;;13.05;;
56429;SDS011;42332;52.136;20.666;2022-08-19T02:10:17;21.90;;;12.13;;
56429;SDS011;42332;52.136;20.666;2022-08-19T02:12:44;22.98;;;13.60;;
56429;SDS011;42332;52.136;20.666;2022-08-19T02:15:11;22.90;;;12.70;;
56429;SDS011;42332;52.136;20.666;2022-08-19T02:17:36;21.60;;;12.68;;
56429;SDS011;42332;52.136;20.666;2022-08-19T02:20:02;20.98;;;12.05;;
56429;SDS011;42332;52.136;20.666;2022-08-19T02:22:28;20.08;;;12.73;;
56429;SDS011;42332;52.136;20.666;2022-08-19T02:24:53;22.73;;;13.10;;
56429;SDS011;42332;52.136;20.666;2022-08-19T02:27:19;23.02;;;12.50;;
56429;SDS011;42332;52.136;20.666;2022-08-19T02:29:46;23.15;;;12.23;;
56429;SDS011;42332;52.136;20.666;2022-08-19T02:32:12;19.88;;;12.75;;
56429;SDS011;42332;52.136;20.666;2022-08-19T02:34:38;23.73;;;13.05;;
56429;SDS011;42332;52.136;20.666;2022-08-19T02:37:03;20.17;;;13.20;;
56429;SDS011;42332;52.136;20.666;2022-08-19T02:39:29;19.27;;;12.02;;
56429;SDS011;42332;52.136;20.666;2022-08-19T02:41:54;24.77;;;12.13;;
56429;SDS011;42332;52.136;20.666;2022-08-19T02:44:20;22.30;;;12.73;;
56429;SDS011;42332;52.136;20.666;2022-08-19T02:46:46;19.08;;;11.85;;
56429;SDS011;42332;52.136;20.666;2022-08-19T02:49:12;24.27;;;12.57;;
56429;SDS011;42332;52.136;20.666;2022-08-19T02:51:39;21.95;;;13.13;;
56429;SDS011;42332;52.136;20.666;2022-08-19T02:54:06;23.75;;;13.13;;
56429;SDS011;42332;52.136;20.666;2022-08-19T02:56:33;20.27;;;12.85;;
56429;SDS011;42332;52.136;20.666;2022-08-19T02:59:00;21.08;;;12.68;;
56429;SDS011;42332;52.136;20.666;2022-08-19T03:01:27;24.48;;;11.48;;
56429;SDS011;42332;52.136;20.666;2022-08-19T03:03:54;21.67;;;14.30;;
56429;SDS011;42332;52.136;20.666;2022-08-19T03:06:21;20.55;;;12.50;;
56429;SDS011;42332;52.136;20.666;2022-08-19T03:08:47;23.67;;;13.55;;
56429;SDS011;42332;52.136;20.666;2022-08-19T03:11:17;22.73;;;12.88;;
56429;SDS011;42332;52.136;20.666;2022-08-19T03:13:44;24.67;;;12.55;;
56429;SDS011;42332;52.136;20.666;2022-08-19T03:16:10;25.52;;;12.98;;
56429;SDS011;42332;52.136;20.666;2022-08-19T03:18:37;24.75;;;13.82;;
56429;SDS011;42332;52.136;20.666;2022-08-19T03:21:03;24.02;;;13.10;;
56429;SDS011;42332;52.136;20.666;2022-08-19T03:23:28;20.83;;;12.52;;
56429;SDS011;42332;52.136;20.666;2022-08-19T03:25:53;26.73;;;13.65;;
56429;SDS011;42332;52.136;20.666;2022-08-19T03:28:19;25.48;;;14.45;;
56429;SDS011;42332;52.136;20.666;2022-08-19T03:30:55;23.33;;;14.00;;
56429;SDS011;42332;52.136;20.666;2022-08-19T03:33:32;21.52;;;13.48;;
56429;SDS011;42332;52.136;20.666;2022-08-19T03:36:07;24.05;;;13.30;;
56429;SDS011;42332;52.136;20.666;2022-08-19T03:38:45;23.88;;;12.82;;
56429;SDS011;42332;52.136;20.666;2022-08-19T03:41:14;21.75;;;13.07;;
56429;SDS011;42332;52.136;20.666;2022-08-19T03:43:44;18.77;;;12.85;;
56429;SDS011;42332;52.136;20.666;2022-08-19T03:46:13;21.38;;;12.55;;
56429;SDS011;42332;52.136;20.666;2022-08-19T03:48:43;19.85;;;12.15;;
56429;SDS011;42332;52.136;20.666;2022-08-19T03:51:19;27.65;;;14.43;;
56429;SDS011;42332;52.136;20.666;2022-08-19T03:53:53;23.23;;;13.43;;
56429;SDS011;42332;52.136;20.666;2022-08-19T03:56:19;27.05;;;13.23;;
56429;SDS011;42332;52.136;20.666;2022-08-19T03:58:45;19.65;;;12.35;;
56429;SDS011;42332;52.136;20.666;2022-08-19T04:01:11;28.42;;;13.07;;
56429;SDS011;42332;52.136;20.666;2022-08-19T04:03:40;22.05;;;12.15;;
56429;SDS011;42332;52.136;20.666;2022-08-19T04:08:42;24.40;;;13.25;;
56429;SDS011;42332;52.136;20.666;2022-08-19T04:11:09;21.67;;;12.13;;
56429;SDS011;42332;52.136;20.666;2022-08-19T04:13:37;23.95;;;12.15;;
56429;SDS011;42332;52.136;20.666;2022-08-19T04:16:03;20.20;;;12.50;;
56429;SDS011;42332;52.136;20.666;2022-08-19T04:18:29;21.48;;;13.82;;
56429;SDS011;42332;52.136;20.666;2022-08-19T04:20:55;29.85;;;14.52;;
56429;SDS011;42332;52.136;20.666;2022-08-19T04:23:21;22.42;;;12.40;;
56429;SDS011;42332;52.136;20.666;2022-08-19T04:25:47;24.30;;;13.32;;
56429;SDS011;42332;52.136;20.666;2022-08-19T04:28:13;20.33;;;12.55;;
56429;SDS011;42332;52.136;20.666;2022-08-19T04:30:42;19.25;;;12.73;;
56429;SDS011;42332;52.136;20.666;2022-08-19T04:33:13;20.80;;;12.02;;
56429;SDS011;42332;52.136;20.666;2022-08-19T04:35:41;23.48;;;12.68;;
56429;SDS011;42332;52.136;20.666;2022-08-19T04:38:08;23.13;;;12.82;;
56429;SDS011;42332;52.136;20.666;2022-08-19T04:40:39;21.58;;;12.80;;
56429;SDS011;42332;52.136;20.666;2022-08-19T04:43:23;21.27;;;12.80;;
56429;SDS011;42332;52.136;20.666;2022-08-19T04:45:49;18.65;;;12.27;;
56429;SDS011;42332;52.136;20.666;2022-08-19T04:48:15;21.58;;;12.85;;
56429;SDS011;42332;52.136;20.666;2022-08-19T04:50:41;21.23;;;13.27;;
56429;SDS011;42332;52.136;20.666;2022-08-19T04:53:07;18.35;;;11.85;;
56429;SDS011;42332;52.136;20.666;2022-08-19T04:55:33;23.00;;;12.63;;
56429;SDS011;42332;52.136;20.666;2022-08-19T04:58:00;20.63;;;12.02;;
56429;SDS011;42332;52.136;20.666;2022-08-19T05:00:27;21.45;;;12.23;;
56429;SDS011;42332;52.136;20.666;2022-08-19T05:02:52;19.48;;;11.95;;
56429;SDS011;42332;52.136;20.666;2022-08-19T05:05:18;21.60;;;11.13;;
56429;SDS011;42332;52.136;20.666;2022-08-19T05:07:44;23.98;;;11.98;;
56429;SDS011;42332;52.136;20.666;2022-08-19T05:10:10;21.60;;;11.65;;
56429;SDS011;42332;52.136;20.666;2022-08-19T05:12:36;19.98;;;11.90;;
56429;SDS011;42332;52.136;20.666;2022-08-19T05:15:07;22.13;;;11.45;;
56429;SDS011;42332;52.136;20.666;2022-08-19T05:17:36;20.63;;;11.60;;
56429;SDS011;42332;52.136;20.666;2022-08-19T05:20:02;21.88;;;11.65;;
56429;SDS011;42332;52.136;20.666;2022-08-19T05:22:48;21.85;;;11.48;;
56429;SDS011;42332;52.136;20.666;2022-08-19T05:25:15;20.67;;;11.95;;
56429;SDS011;42332;52.136;20.666;2022-08-19T05:27:43;17.20;;;11.35;;
56429;SDS011;42332;52.136;20.666;2022-08-19T05:30:09;22.33;;;11.82;;
56429;SDS011;42332;52.136;20.666;2022-08-19T05:32:36;26.08;;;12.20;;
56429;SDS011;42332;52.136;20.666;2022-08-19T05:35:01;20.65;;;12.43;;
56429;SDS011;42332;52.136;20.666;2022-08-19T05:37:28;25.52;;;11.90;;
56429;SDS011;42332;52.136;20.666;2022-08-19T05:39:53;19.95;;;10.70;;
56429;SDS011;42332;52.136;20.666;2022-08-19T05:42:19;18.08;;;11.50;;
56429;SDS011;42332;52.136;20.666;2022-08-19T05:44:46;21.10;;;11.82;;
56429;SDS011;42332;52.136;20.666;2022-08-19T05:47:13;21.15;;;11.23;;
56429;SDS011;42332;52.136;20.666;2022-08-19T05:49:40;20.35;;;11.73;;
56429;SDS011;42332;52.136;20.666;2022-08-19T05:52:07;25.50;;;12.35;;
56429;SDS011;42332;52.136;20.666;2022-08-19T05:54:36;20.75;;;11.70;;
56429;SDS011;42332;52.136;20.666;2022-08-19T05:57:05;18.55;;;11.82;;
56429;SDS011;42332;52.136;20.666;2022-08-19T05:59:30;20.75;;;10.77;;
56429;SDS011;42332;52.136;20.666;2022-08-19T06:01:55;21.42;;;11.18;;
56429;SDS011;42332;52.136;20.666;2022-08-19T06:04:22;20.70;;;11.10;;
56429;SDS011;42332;52.136;20.666;2022-08-19T06:06:51;19.45;;;11.30;;
56429;SDS011;42332;52.136;20.666;2022-08-19T06:09:18;20.25;;;10.75;;
56429;SDS011;42332;52.136;20.666;2022-08-19T06:14:20;18.45;;;9.52;;
56429;SDS011;42332;52.136;20.666;2022-08-19T06:16:48;23.17;;;10.27;;
56429;SDS011;42332;52.136;20.666;2022-08-19T06:19:17;19.75;;;9.85;;
56429;SDS011;42332;52.136;20.666;2022-08-19T06:21:44;26.80;;;11.43;;
56429;SDS011;42332;52.136;20.666;2022-08-19T06:24:11;16.95;;;10.10;;
56429;SDS011;42332;52.136;20.666;2022-08-19T06:26:38;21.35;;;9.80;;
56429;SDS011;42332;52.136;20.666;2022-08-19T06:29:06;19.08;;;10.02;;
56429;SDS011;42332;52.136;20.666;2022-08-19T06:31:33;22.45;;;9.95;;
56429;SDS011;42332;52.136;20.666;2022-08-19T06:34:00;19.20;;;10.00;;
56429;SDS011;42332;52.136;20.666;2022-08-19T06:36:30;21.40;;;10.85;;
56429;SDS011;42332;52.136;20.666;2022-08-19T06:42:03;16.08;;;9.52;;
56429;SDS011;42332;52.136;20.666;2022-08-19T06:44:32;21.05;;;10.23;;
56429;SDS011;42332;52.136;20.666;2022-08-19T06:47:00;26.23;;;9.45;;
56429;SDS011;42332;52.136;20.666;2022-08-19T06:49:27;22.38;;;9.57;;
56429;SDS011;42332;52.136;20.666;2022-08-19T06:51:56;18.83;;;9.65;;
56429;SDS011;42332;52.136;20.666;2022-08-19T06:54:22;24.92;;;9.52;;
56429;SDS011;42332;52.136;20.666;2022-08-19T06:56:48;17.45;;;10.48;;
56429;SDS011;42332;52.136;20.666;2022-08-19T06:59:16;21.10;;;9.95;;
56429;SDS011;42332;52.136;20.666;2022-08-19T07:01:44;24.98;;;9.75;;
56429;SDS011;42332;52.136;20.666;2022-08-19T07:04:13;18.75;;;10.20;;
56429;SDS011;42332;52.136;20.666;2022-08-19T07:06:41;16.25;;;10.10;;
56429;SDS011;42332;52.136;20.666;2022-08-19T07:09:07;14.93;;;9.18;;
56429;SDS011;42332;52.136;20.666;2022-08-19T07:11:36;17.40;;;9.63;;
56429;SDS011;42332;52.136;20.666;2022-08-19T07:14:02;18.10;;;8.77;;
56429;SDS011;42332;52.136;20.666;2022-08-19T07:16:28;15.68;;;9.45;;
56429;SDS011;42332;52.136;20.666;2022-08-19T07:18:54;19.30;;;8.82;;
56429;SDS011;42332;52.136;20.666;2022-08-19T07:21:22;20.48;;;8.98;;
56429;SDS011;42332;52.136;20.666;2022-08-19T07:23:49;24.50;;;10.23;;
56429;SDS011;42332;52.136;20.666;2022-08-19T07:26:16;13.40;;;8.57;;
56429;SDS011;42332;52.136;20.666;2022-08-19T07:28:49;18.20;;;9.50;;
56429;SDS011;42332;52.136;20.666;2022-08-19T07:31:16;16.83;;;9.55;;
56429;SDS011;42332;52.136;20.666;2022-08-19T07:33:43;13.13;;;8.75;;
56429;SDS011;42332;52.136;20.666;2022-08-19T07:36:09;21.35;;;9.60;;
56429;SDS011;42332;52.136;20.666;2022-08-19T07:38:37;18.02;;;9.40;;
56429;SDS011;42332;52.136;20.666;2022-08-19T07:41:04;13.77;;;8.40;;
56429;SDS011;42332;52.136;20.666;2022-08-19T07:43:30;22.52;;;8.90;;
56429;SDS011;42332;52.136;20.666;2022-08-19T07:45:55;16.52;;;8.63;;
56429;SDS011;42332;52.136;20.666;2022-08-19T07:48:25;18.02;;;9.65;;
56429;SDS011;42332;52.136;20.666;2022-08-19T07:50:53;18.35;;;8.10;;
56429;SDS011;42332;52.136;20.666;2022-08-19T07:53:19;21.13;;;8.00;;
56429;SDS011;42332;52.136;20.666;2022-08-19T07:55:46;14.93;;;8.32;;
56429;SDS011;42332;52.136;20.666;2022-08-19T07:58:12;22.00;;;9.63;;
56429;SDS011;42332;52.136;20.666;2022-08-19T08:00:39;17.48;;;8.65;;
56429;SDS011;42332;52.136;20.666;2022-08-19T08:03:06;20.17;;;8.63;;
56429;SDS011;42332;52.136;20.666;2022-08-19T08:05:31;18.83;;;8.65;;
56429;SDS011;42332;52.136;20.666;2022-08-19T08:08:15;15.25;;;8.30;;
56429;SDS011;42332;52.136;20.666;2022-08-19T08:10:59;18.50;;;7.97;;
56429;SDS011;42332;52.136;20.666;2022-08-19T08:13:25;17.67;;;8.10;;
56429;SDS011;42332;52.136;20.666;2022-08-19T08:15:52;19.35;;;8.93;;
56429;SDS011;42332;52.136;20.666;2022-08-19T08:18:17;17.73;;;7.78;;
56429;SDS011;42332;52.136;20.666;2022-08-19T08:20:43;19.83;;;8.30;;
56429;SDS011;42332;52.136;20.666;2022-08-19T08:23:09;23.08;;;8.40;;
56429;SDS011;42332;52.136;20.666;2022-08-19T08:25:54;17.85;;;8.32;;
56429;SDS011;42332;52.136;20.666;2022-08-19T08:28:21;16.58;;;8.02;;
56429;SDS011;42332;52.136;20.666;2022-08-19T08:30:48;17.90;;;8.30;;
56429;SDS011;42332;52.136;20.666;2022-08-19T08:33:21;16.30;;;7.63;;
56429;SDS011;42332;52.136;20.666;2022-08-19T08:35:48;12.70;;;8.15;;
56429;SDS011;42332;52.136;20.666;2022-08-19T08:38:13;19.67;;;8.85;;
56429;SDS011;42332;52.136;20.666;2022-08-19T08:40:43;14.82;;;7.95;;
56429;SDS011;42332;52.136;20.666;2022-08-19T08:43:18;23.02;;;7.97;;
56429;SDS011;42332;52.136;20.666;2022-08-19T08:48:49;17.35;;;8.15;;
56429;SDS011;42332;52.136;20.666;2022-08-19T08:51:19;16.03;;;8.40;;
56429;SDS011;42332;52.136;20.666;2022-08-19T08:53:46;19.23;;;7.38;;
56429;SDS011;42332;52.136;20.666;2022-08-19T08:56:14;13.32;;;7.47;;
56429;SDS011;42332;52.136;20.666;2022-08-19T09:01:15;15.80;;;6.90;;
56429;SDS011;42332;52.136;20.666;2022-08-19T09:03:41;10.80;;;6.80;;
56429;SDS011;42332;52.136;20.666;2022-08-19T09:06:11;18.08;;;6.80;;
56429;SDS011;42332;52.136;20.666;2022-08-19T09:14:07;13.38;;;6.45;;
56429;SDS011;42332;52.136;20.666;2022-08-19T09:16:33;13.88;;;7.30;;
56429;SDS011;42332;52.136;20.666;2022-08-19T09:19:03;12.52;;;6.88;;
56429;SDS011;42332;52.136;20.666;2022-08-19T09:21:29;12.63;;;6.70;;
56429;SDS011;42332;52.136;20.666;2022-08-19T09:23:55;16.38;;;6.63;;
56429;SDS011;42332;52.136;20.666;2022-08-19T09:26:21;14.15;;;6.95;;
56429;SDS011;42332;52.136;20.666;2022-08-19T09:28:48;11.10;;;6.32;;
56429;SDS011;42332;52.136;20.666;2022-08-19T09:31:16;13.20;;;6.47;;
56429;SDS011;42332;52.136;20.666;2022-08-19T09:33:42;12.98;;;6.75;;
56429;SDS011;42332;52.136;20.666;2022-08-19T09:36:09;14.35;;;7.10;;
56429;SDS011;42332;52.136;20.666;2022-08-19T09:38:36;12.27;;;6.97;;
56429;SDS011;42332;52.136;20.666;2022-08-19T09:41:05;11.68;;;6.60;;
56429;SDS011;42332;52.136;20.666;2022-08-19T09:43:39;17.40;;;6.63;;
56429;SDS011;42332;52.136;20.666;2022-08-19T09:46:06;12.68;;;6.82;;
56429;SDS011;42332;52.136;20.666;2022-08-19T09:48:37;16.88;;;6.50;;
56429;SDS011;42332;52.136;20.666;2022-08-19T09:51:13;14.00;;;6.50;;
56429;SDS011;42332;52.136;20.666;2022-08-19T09:53:40;13.45;;;7.05;;
56429;SDS011;42332;52.136;20.666;2022-08-19T09:56:06;14.82;;;6.50;;
56429;SDS011;42332;52.136;20.666;2022-08-19T09:58:32;16.35;;;7.07;;
56429;SDS011;42332;52.136;20.666;2022-08-19T10:00:59;14.25;;;6.82;;
56429;SDS011;42332;52.136;20.666;2022-08-19T10:03:26;13.27;;;7.45;;
56429;SDS011;42332;52.136;20.666;2022-08-19T10:05:53;14.75;;;6.57;;
56429;SDS011;42332;52.136;20.666;2022-08-19T10:08:20;15.65;;;6.45;;
56429;SDS011;42332;52.136;20.666;2022-08-19T10:10:49;16.23;;;6.55;;
56429;SDS011;42332;52.136;20.666;2022-08-19T10:13:16;14.48;;;6.68;;
56429;SDS011;42332;52.136;20.666;2022-08-19T10:15:47;17.30;;;6.90;;
56429;SDS011;42332;52.136;20.666;2022-08-19T10:18:15;14.60;;;6.80;;
56429;SDS011;42332;52.136;20.666;2022-08-19T10:20:44;21.48;;;7.38;;
56429;SDS011;42332;52.136;20.666;2022-08-19T10:23:11;14.57;;;6.40;;
56429;SDS011;42332;52.136;20.666;2022-08-19T10:25:37;16.58;;;6.45;;
56429;SDS011;42332;52.136;20.666;2022-08-19T10:28:02;25.52;;;7.63;;
56429;SDS011;42332;52.136;20.666;2022-08-19T10:30:28;16.90;;;6.82;;
56429;SDS011;42332;52.136;20.666;2022-08-19T10:32:53;14.55;;;7.15;;
56429;SDS011;42332;52.136;20.666;2022-08-19T10:35:19;19.00;;;7.35;;
56429;SDS011;42332;52.136;20.666;2022-08-19T10:37:45;15.73;;;6.68;;
56429;SDS011;42332;52.136;20.666;2022-08-19T10:40:10;16.10;;;7.28;;
56429;SDS011;42332;52.136;20.666;2022-08-19T10:42:36;13.23;;;6.65;;
56429;SDS011;42332;52.136;20.666;2022-08-19T10:45:02;14.35;;;6.35;;
56429;SDS011;42332;52.136;20.666;2022-08-19T10:47:30;34.95;;;7.78;;
56429;SDS011;42332;52.136;20.666;2022-08-19T10:49:56;19.05;;;7.07;;
56429;SDS011;42332;52.136;20.666;2022-08-19T10:52:41;13.98;;;6.63;;
56429;SDS011;42332;52.136;20.666;2022-08-19T10:55:08;19.30;;;6.63;;
56429;SDS011;42332;52.136;20.666;2022-08-19T10:57:52;10.20;;;6.07;;
56429;SDS011;42332;52.136;20.666;2022-08-19T11:00:18;23.60;;;6.70;;
56429;SDS011;42332;52.136;20.666;2022-08-19T11:02:44;9.23;;;5.72;;
56429;SDS011;42332;52.136;20.666;2022-08-19T11:05:11;14.10;;;6.32;;
56429;SDS011;42332;52.136;20.666;2022-08-19T11:07:38;16.52;;;6.43;;
56429;SDS011;42332;52.136;20.666;2022-08-19T11:10:04;16.80;;;7.13;;
56429;SDS011;42332;52.136;20.666;2022-08-19T11:12:30;11.68;;;6.00;;
56429;SDS011;42332;52.136;20.666;2022-08-19T11:14:55;16.52;;;6.60;;
56429;SDS011;42332;52.136;20.666;2022-08-19T11:17:21;15.38;;;6.45;;
56429;SDS011;42332;52.136;20.666;2022-08-19T11:19:48;11.45;;;6.00;;
56429;SDS011;42332;52.136;20.666;2022-08-19T11:22:14;15.43;;;5.85;;
56429;SDS011;42332;52.136;20.666;2022-08-19T11:24:39;19.23;;;6.13;;
56429;SDS011;42332;52.136;20.666;2022-08-19T11:27:06;14.43;;;5.72;;
56429;SDS011;42332;52.136;20.666;2022-08-19T11:29:34;22.77;;;6.65;;
56429;SDS011;42332;52.136;20.666;2022-08-19T11:32:02;12.57;;;6.20;;
56429;SDS011;42332;52.136;20.666;2022-08-19T11:34:29;15.10;;;5.68;;
56429;SDS011;42332;52.136;20.666;2022-08-19T11:36:56;10.85;;;6.03;;
56429;SDS011;42332;52.136;20.666;2022-08-19T11:39:25;13.90;;;5.68;;
56429;SDS011;42332;52.136;20.666;2022-08-19T11:41:52;17.67;;;5.60;;
56429;SDS011;42332;52.136;20.666;2022-08-19T11:44:18;20.42;;;6.20;;
56429;SDS011;42332;52.136;20.666;2022-08-19T11:46:43;18.60;;;6.32;;
56429;SDS011;42332;52.136;20.666;2022-08-19T11:49:11;11.50;;;5.35;;
56429;SDS011;42332;52.136;20.666;2022-08-19T11:51:37;15.85;;;5.40;;
56429;SDS011;42332;52.136;20.666;2022-08-19T11:54:04;15.02;;;6.07;;
56429;SDS011;42332;52.136;20.666;2022-08-19T11:56:30;11.60;;;5.68;;
56429;SDS011;42332;52.136;20.666;2022-08-19T11:58:55;14.02;;;5.70;;
56429;SDS011;42332;52.136;20.666;2022-08-19T12:01:25;12.35;;;5.85;;
56429;SDS011;42332;52.136;20.666;2022-08-19T12:03:51;12.95;;;6.03;;
56429;SDS011;42332;52.136;20.666;2022-08-19T12:06:20;14.65;;;5.55;;
56429;SDS011;42332;52.136;20.666;2022-08-19T12:08:50;19.90;;;6.65;;
56429;SDS011;42332;52.136;20.666;2022-08-19T12:11:16;10.32;;;5.95;;
56429;SDS011;42332;52.136;20.666;2022-08-19T12:13:41;12.10;;;5.68;;
56429;SDS011;42332;52.136;20.666;2022-08-19T12:16:09;19.27;;;6.45;;
56429;SDS011;42332;52.136;20.666;2022-08-19T12:18:37;13.63;;;5.57;;
56429;SDS011;42332;52.136;20.666;2022-08-19T12:21:03;16.15;;;6.45;;
56429;SDS011;42332;52.136;20.666;2022-08-19T12:23:28;13.38;;;5.50;;
56429;SDS011;42332;52.136;20.666;2022-08-19T12:25:54;13.27;;;5.22;;
56429;SDS011;42332;52.136;20.666;2022-08-19T12:28:19;13.93;;;6.05;;
56429;SDS011;42332;52.136;20.666;2022-08-19T12:30:46;13.80;;;5.90;;
56429;SDS011;42332;52.136;20.666;2022-08-19T12:33:13;17.58;;;5.90;;
56429;SDS011;42332;52.136;20.666;2022-08-19T12:35:39;17.10;;;6.65;;
56429;SDS011;42332;52.136;20.666;2022-08-19T12:38:06;13.13;;;5.68;;
56429;SDS011;42332;52.136;20.666;2022-08-19T12:40:31;15.50;;;5.85;;
56429;SDS011;42332;52.136;20.666;2022-08-19T12:42:57;11.85;;;5.60;;
56429;SDS011;42332;52.136;20.666;2022-08-19T12:45:25;18.60;;;6.28;;
56429;SDS011;42332;52.136;20.666;2022-08-19T12:47:51;12.32;;;5.35;;
56429;SDS011;42332;52.136;20.666;2022-08-19T12:50:17;15.00;;;5.63;;
56429;SDS011;42332;52.136;20.666;2022-08-19T12:52:43;10.43;;;5.72;;
56429;SDS011;42332;52.136;20.666;2022-08-19T12:55:09;13.35;;;5.65;;
56429;SDS011;42332;52.136;20.666;2022-08-19T12:57:35;11.73;;;5.65;;
56429;SDS011;42332;52.136;20.666;2022-08-19T13:00:11;9.75;;;5.22;;
56429;SDS011;42332;52.136;20.666;2022-08-19T13:02:39;12.05;;;5.75;;
56429;SDS011;42332;52.136;20.666;2022-08-19T13:05:07;10.95;;;5.20;;
56429;SDS011;42332;52.136;20.666;2022-08-19T13:07:33;12.80;;;6.18;;
56429;SDS011;42332;52.136;20.666;2022-08-19T13:09:59;11.15;;;5.57;;
56429;SDS011;42332;52.136;20.666;2022-08-19T13:12:25;13.95;;;5.85;;
56429;SDS011;42332;52.136;20.666;2022-08-19T13:14:51;13.70;;;5.70;;
56429;SDS011;42332;52.136;20.666;2022-08-19T13:17:18;11.50;;;5.70;;
56429;SDS011;42332;52.136;20.666;2022-08-19T13:19:44;12.68;;;5.70;;
56429;SDS011;42332;52.136;20.666;2022-08-19T13:22:09;10.55;;;5.07;;
56429;SDS011;42332;52.136;20.666;2022-08-19T13:24:35;15.05;;;5.43;;
56429;SDS011;42332;52.136;20.666;2022-08-19T13:27:01;14.38;;;5.18;;
56429;SDS011;42332;52.136;20.666;2022-08-19T13:29:27;15.80;;;5.55;;
56429;SDS011;42332;52.136;20.666;2022-08-19T13:32:11;15.48;;;5.97;;
56429;SDS011;42332;52.136;20.666;2022-08-19T13:34:55;11.13;;;5.55;;
56429;SDS011;42332;52.136;20.666;2022-08-19T13:37:20;14.73;;;6.00;;
56429;SDS011;42332;52.136;20.666;2022-08-19T13:40:06;9.40;;;5.47;;
56429;SDS011;42332;52.136;20.666;2022-08-19T13:42:43;10.75;;;5.10;;
56429;SDS011;42332;52.136;20.666;2022-08-19T13:45:13;11.15;;;5.63;;
56429;SDS011;42332;52.136;20.666;2022-08-19T13:47:40;21.30;;;5.75;;
56429;SDS011;42332;52.136;20.666;2022-08-19T13:50:07;10.63;;;5.70;;
56429;SDS011;42332;52.136;20.666;2022-08-19T13:52:36;10.40;;;5.55;;
56429;SDS011;42332;52.136;20.666;2022-08-19T13:55:03;10.77;;;4.90;;
56429;SDS011;42332;52.136;20.666;2022-08-19T13:57:29;9.13;;;4.85;;
56429;SDS011;42332;52.136;20.666;2022-08-19T13:59:55;15.07;;;4.55;;
56429;SDS011;42332;52.136;20.666;2022-08-19T14:02:20;17.15;;;5.03;;
56429;SDS011;42332;52.136;20.666;2022-08-19T14:04:45;13.52;;;5.07;;
56429;SDS011;42332;52.136;20.666;2022-08-19T14:07:11;9.55;;;5.22;;
56429;SDS011;42332;52.136;20.666;2022-08-19T14:09:36;13.10;;;5.10;;
56429;SDS011;42332;52.136;20.666;2022-08-19T14:12:02;13.75;;;5.03;;
56429;SDS011;42332;52.136;20.666;2022-08-19T14:14:28;9.38;;;5.22;;
56429;SDS011;42332;52.136;20.666;2022-08-19T14:16:54;19.40;;;5.47;;
56429;SDS011;42332;52.136;20.666;2022-08-19T14:19:19;15.60;;;4.75;;
56429;SDS011;42332;52.136;20.666;2022-08-19T14:21:44;16.00;;;5.10;;
56429;SDS011;42332;52.136;20.666;2022-08-19T14:24:10;15.65;;;5.43;;
56429;SDS011;42332;52.136;20.666;2022-08-19T14:26:35;28.30;;;6.22;;
56429;SDS011;42332;52.136;20.666;2022-08-19T14:29:01;15.88;;;5.40;;
56429;SDS011;42332;52.136;20.666;2022-08-19T14:31:26;11.38;;;5.10;;
56429;SDS011;42332;52.136;20.666;2022-08-19T14:33:52;33.20;;;7.20;;
56429;SDS011;42332;52.136;20.666;2022-08-19T14:36:17;19.27;;;5.82;;